sensor_id;sensor_type;location;lat;lon;timestamp;P1;durP1;ratioP1;P2;durP2;ratioP2
67768;SDS011;54569;52.018;5.584;2022-08-21T00:02:21;7.47;;;5.22;;
67768;SDS011;54569;52.018;5.584;2022-08-21T00:04:49;7.05;;;5.32;;
67768;SDS011;54569;52.018;5.584;2022-08-21T00:07:15;8.77;;;5.18;;
67768;SDS011;54569;52.018;5.584;2022-08-21T00:09:41;9.45;;;5.53;;
67768;SDS011;54569;52.018;5.584;2022-08-21T00:12:07;11.07;;;5.05;;
67768;SDS011;54569;52.018;5.584;2022-08-21T00:14:33;6.25;;;5.55;;
67768;SDS011;54569;52.018;5.584;2022-08-21T00:16:59;7.63;;;5.32;;
67768;SDS011;54569;52.018;5.584;2022-08-21T00:19:26;7.00;;;5.22;;
67768;SDS011;54569;52.018;5.584;2022-08-21T00:21:52;6.88;;;5.40;;
67768;SDS011;54569;52.018;5.584;2022-08-21T00:24:18;6.70;;;5.57;;
67768;SDS011;54569;52.018;5.584;2022-08-21T00:26:45;13.60;;;5.68;;
67768;SDS011;54569;52.018;5.584;2022-08-21T00:29:11;7.50;;;4.90;;
67768;SDS011;54569;52.018;5.584;2022-08-21T00:31:38;5.15;;;4.45;;
67768;SDS011;54569;52.018;5.584;2022-08-21T00:34:04;6.38;;;5.25;;
67768;SDS011;54569;52.018;5.584;2022-08-21T00:36:31;6.00;;;5.07;;
67768;SDS011;54569;52.018;5.584;2022-08-21T00:38:57;8.38;;;5.72;;
67768;SDS011;54569;52.018;5.584;2022-08-21T00:41:22;5.60;;;5.10;;
67768;SDS011;54569;52.018;5.584;2022-08-21T00:43:49;6.30;;;5.63;;
67768;SDS011;54569;52.018;5.584;2022-08-21T00:46:16;5.82;;;5.22;;
67768;SDS011;54569;52.018;5.584;2022-08-21T00:48:42;6.47;;;5.50;;
67768;SDS011;54569;52.018;5.584;2022-08-21T00:51:10;6.72;;;5.78;;
67768;SDS011;54569;52.018;5.584;2022-08-21T00:53:42;7.85;;;5.68;;
67768;SDS011;54569;52.018;5.584;2022-08-21T00:56:10;6.93;;;5.78;;
67768;SDS011;54569;52.018;5.584;2022-08-21T00:58:37;6.28;;;5.60;;
67768;SDS011;54569;52.018;5.584;2022-08-21T01:01:06;5.72;;;5.18;;
67768;SDS011;54569;52.018;5.584;2022-08-21T01:03:33;7.97;;;5.78;;
67768;SDS011;54569;52.018;5.584;2022-08-21T01:05:59;6.85;;;6.20;;
67768;SDS011;54569;52.018;5.584;2022-08-21T01:08:25;6.40;;;5.72;;
67768;SDS011;54569;52.018;5.584;2022-08-21T01:10:54;8.35;;;6.28;;
67768;SDS011;54569;52.018;5.584;2022-08-21T01:13:25;6.82;;;6.10;;
67768;SDS011;54569;52.018;5.584;2022-08-21T01:15:53;7.20;;;6.20;;
67768;SDS011;54569;52.018;5.584;2022-08-21T01:18:21;8.00;;;5.40;;
67768;SDS011;54569;52.018;5.584;2022-08-21T01:20:58;7.05;;;6.00;;
67768;SDS011;54569;52.018;5.584;2022-08-21T01:23:28;6.15;;;5.55;;
67768;SDS011;54569;52.018;5.584;2022-08-21T01:25:55;9.95;;;6.57;;
67768;SDS011;54569;52.018;5.584;2022-08-21T01:28:21;6.85;;;5.53;;
67768;SDS011;54569;52.018;5.584;2022-08-21T01:30:47;8.73;;;5.78;;
67768;SDS011;54569;52.018;5.584;2022-08-21T01:33:15;10.27;;;6.13;;
67768;SDS011;54569;52.018;5.584;2022-08-21T01:35:47;6.55;;;5.85;;
67768;SDS011;54569;52.018;5.584;2022-08-21T01:38:12;7.25;;;5.90;;
67768;SDS011;54569;52.018;5.584;2022-08-21T01:40:38;6.05;;;5.45;;
67768;SDS011;54569;52.018;5.584;2022-08-21T01:43:04;10.07;;;6.00;;
67768;SDS011;54569;52.018;5.584;2022-08-21T01:45:30;6.10;;;5.35;;
67768;SDS011;54569;52.018;5.584;2022-08-21T01:47:55;8.40;;;5.85;;
67768;SDS011;54569;52.018;5.584;2022-08-21T01:50:21;6.30;;;5.70;;
67768;SDS011;54569;52.018;5.584;2022-08-21T01:52:47;7.60;;;5.70;;
67768;SDS011;54569;52.018;5.584;2022-08-21T01:55:13;5.97;;;5.45;;
67768;SDS011;54569;52.018;5.584;2022-08-21T01:57:43;8.85;;;6.47;;
67768;SDS011;54569;52.018;5.584;2022-08-21T02:00:12;7.32;;;6.32;;
67768;SDS011;54569;52.018;5.584;2022-08-21T02:02:40;7.95;;;6.35;;
67768;SDS011;54569;52.018;5.584;2022-08-21T02:05:06;7.22;;;6.05;;
67768;SDS011;54569;52.018;5.584;2022-08-21T02:07:38;7.20;;;5.63;;
67768;SDS011;54569;52.018;5.584;2022-08-21T02:10:06;7.03;;;6.20;;
67768;SDS011;54569;52.018;5.584;2022-08-21T02:12:34;6.97;;;6.03;;
67768;SDS011;54569;52.018;5.584;2022-08-21T02:14:59;8.48;;;6.10;;
67768;SDS011;54569;52.018;5.584;2022-08-21T02:17:25;7.05;;;6.35;;
67768;SDS011;54569;52.018;5.584;2022-08-21T02:19:51;6.95;;;6.00;;
67768;SDS011;54569;52.018;5.584;2022-08-21T02:22:17;8.98;;;6.57;;
67768;SDS011;54569;52.018;5.584;2022-08-21T02:24:43;6.63;;;5.68;;
67768;SDS011;54569;52.018;5.584;2022-08-21T02:27:09;9.18;;;5.85;;
67768;SDS011;54569;52.018;5.584;2022-08-21T02:29:34;10.07;;;5.85;;
67768;SDS011;54569;52.018;5.584;2022-08-21T02:32:00;7.95;;;6.20;;
67768;SDS011;54569;52.018;5.584;2022-08-21T02:34:25;9.30;;;6.32;;
67768;SDS011;54569;52.018;5.584;2022-08-21T02:36:51;7.40;;;5.88;;
67768;SDS011;54569;52.018;5.584;2022-08-21T02:39:17;8.70;;;6.63;;
67768;SDS011;54569;52.018;5.584;2022-08-21T02:41:42;7.15;;;6.00;;
67768;SDS011;54569;52.018;5.584;2022-08-21T02:44:08;7.80;;;6.18;;
67768;SDS011;54569;52.018;5.584;2022-08-21T02:46:34;9.20;;;6.50;;
67768;SDS011;54569;52.018;5.584;2022-08-21T02:49:00;8.60;;;6.10;;
67768;SDS011;54569;52.018;5.584;2022-08-21T02:51:25;8.75;;;6.38;;
67768;SDS011;54569;52.018;5.584;2022-08-21T02:53:51;10.13;;;6.43;;
67768;SDS011;54569;52.018;5.584;2022-08-21T02:56:19;7.47;;;6.00;;
67768;SDS011;54569;52.018;5.584;2022-08-21T02:58:47;9.70;;;6.07;;
67768;SDS011;54569;52.018;5.584;2022-08-21T03:01:16;8.20;;;6.53;;
67768;SDS011;54569;52.018;5.584;2022-08-21T03:03:43;10.48;;;6.78;;
67768;SDS011;54569;52.018;5.584;2022-08-21T03:06:12;7.05;;;6.35;;
67768;SDS011;54569;52.018;5.584;2022-08-21T03:08:39;7.13;;;5.57;;
67768;SDS011;54569;52.018;5.584;2022-08-21T03:11:05;7.38;;;5.95;;
67768;SDS011;54569;52.018;5.584;2022-08-21T03:13:32;6.97;;;6.05;;
67768;SDS011;54569;52.018;5.584;2022-08-21T03:15:58;12.57;;;6.53;;
67768;SDS011;54569;52.018;5.584;2022-08-21T03:18:24;7.88;;;6.22;;
67768;SDS011;54569;52.018;5.584;2022-08-21T03:20:50;8.77;;;6.13;;
67768;SDS011;54569;52.018;5.584;2022-08-21T03:23:16;9.57;;;6.72;;
67768;SDS011;54569;52.018;5.584;2022-08-21T03:25:43;6.40;;;5.85;;
67768;SDS011;54569;52.018;5.584;2022-08-21T03:28:11;7.35;;;5.78;;
67768;SDS011;54569;52.018;5.584;2022-08-21T03:30:40;7.38;;;6.32;;
67768;SDS011;54569;52.018;5.584;2022-08-21T03:33:07;8.50;;;6.30;;
67768;SDS011;54569;52.018;5.584;2022-08-21T03:35:33;12.38;;;5.93;;
67768;SDS011;54569;52.018;5.584;2022-08-21T03:37:59;8.52;;;6.60;;
67768;SDS011;54569;52.018;5.584;2022-08-21T03:40:24;8.98;;;6.80;;
67768;SDS011;54569;52.018;5.584;2022-08-21T03:42:51;11.95;;;6.47;;
67768;SDS011;54569;52.018;5.584;2022-08-21T03:45:17;10.20;;;7.10;;
67768;SDS011;54569;52.018;5.584;2022-08-21T03:47:54;8.57;;;6.00;;
67768;SDS011;54569;52.018;5.584;2022-08-21T03:50:23;8.52;;;6.82;;
67768;SDS011;54569;52.018;5.584;2022-08-21T03:52:50;9.55;;;6.85;;
67768;SDS011;54569;52.018;5.584;2022-08-21T03:55:16;11.60;;;7.13;;
67768;SDS011;54569;52.018;5.584;2022-08-21T03:57:45;7.75;;;6.43;;
67768;SDS011;54569;52.018;5.584;2022-08-21T04:00:11;8.27;;;6.70;;
67768;SDS011;54569;52.018;5.584;2022-08-21T04:02:39;10.90;;;6.63;;
67768;SDS011;54569;52.018;5.584;2022-08-21T04:05:05;7.75;;;6.43;;
67768;SDS011;54569;52.018;5.584;2022-08-21T04:07:32;8.25;;;7.25;;
67768;SDS011;54569;52.018;5.584;2022-08-21T04:09:58;6.75;;;6.05;;
67768;SDS011;54569;52.018;5.584;2022-08-21T04:12:23;10.60;;;6.68;;
67768;SDS011;54569;52.018;5.584;2022-08-21T04:14:49;9.73;;;6.75;;
67768;SDS011;54569;52.018;5.584;2022-08-21T04:17:16;8.45;;;7.50;;
67768;SDS011;54569;52.018;5.584;2022-08-21T04:19:42;8.20;;;6.13;;
67768;SDS011;54569;52.018;5.584;2022-08-21T04:22:08;11.30;;;6.78;;
67768;SDS011;54569;52.018;5.584;2022-08-21T04:24:34;9.98;;;7.40;;
67768;SDS011;54569;52.018;5.584;2022-08-21T04:27:00;8.25;;;6.82;;
67768;SDS011;54569;52.018;5.584;2022-08-21T04:29:25;9.02;;;7.30;;
67768;SDS011;54569;52.018;5.584;2022-08-21T04:31:51;7.78;;;6.50;;
67768;SDS011;54569;52.018;5.584;2022-08-21T04:34:17;8.60;;;7.18;;
67768;SDS011;54569;52.018;5.584;2022-08-21T04:36:43;7.75;;;7.05;;
67768;SDS011;54569;52.018;5.584;2022-08-21T04:39:09;9.05;;;7.32;;
67768;SDS011;54569;52.018;5.584;2022-08-21T04:41:35;9.40;;;7.15;;
67768;SDS011;54569;52.018;5.584;2022-08-21T04:44:01;13.23;;;7.38;;
67768;SDS011;54569;52.018;5.584;2022-08-21T04:46:28;10.73;;;7.78;;
67768;SDS011;54569;52.018;5.584;2022-08-21T04:48:53;8.77;;;6.90;;
67768;SDS011;54569;52.018;5.584;2022-08-21T04:51:24;8.38;;;7.25;;
67768;SDS011;54569;52.018;5.584;2022-08-21T04:53:57;8.77;;;7.45;;
67768;SDS011;54569;52.018;5.584;2022-08-21T04:56:33;8.73;;;7.65;;
67768;SDS011;54569;52.018;5.584;2022-08-21T04:59:05;11.97;;;7.77;;
67768;SDS011;54569;52.018;5.584;2022-08-21T05:01:36;12.00;;;7.28;;
67768;SDS011;54569;52.018;5.584;2022-08-21T05:04:03;8.88;;;7.78;;
67768;SDS011;54569;52.018;5.584;2022-08-21T05:06:31;9.02;;;7.10;;
67768;SDS011;54569;52.018;5.584;2022-08-21T05:09:02;11.77;;;7.07;;
67768;SDS011;54569;52.018;5.584;2022-08-21T05:11:29;8.13;;;7.13;;
67768;SDS011;54569;52.018;5.584;2022-08-21T05:13:56;9.75;;;8.55;;
67768;SDS011;54569;52.018;5.584;2022-08-21T05:16:21;8.38;;;7.60;;
67768;SDS011;54569;52.018;5.584;2022-08-21T05:18:47;9.20;;;8.30;;
67768;SDS011;54569;52.018;5.584;2022-08-21T05:21:13;11.52;;;8.18;;
67768;SDS011;54569;52.018;5.584;2022-08-21T05:23:38;10.80;;;8.00;;
67768;SDS011;54569;52.018;5.584;2022-08-21T05:26:04;9.43;;;8.18;;
67768;SDS011;54569;52.018;5.584;2022-08-21T05:28:30;9.48;;;7.72;;
67768;SDS011;54569;52.018;5.584;2022-08-21T05:30:56;11.25;;;8.63;;
67768;SDS011;54569;52.018;5.584;2022-08-21T05:33:22;10.68;;;7.93;;
67768;SDS011;54569;52.018;5.584;2022-08-21T05:35:52;10.25;;;7.78;;
67768;SDS011;54569;52.018;5.584;2022-08-21T05:38:20;10.05;;;8.32;;
67768;SDS011;54569;52.018;5.584;2022-08-21T05:40:47;10.68;;;8.05;;
67768;SDS011;54569;52.018;5.584;2022-08-21T05:43:13;9.82;;;7.80;;
67768;SDS011;54569;52.018;5.584;2022-08-21T05:45:39;8.90;;;7.82;;
67768;SDS011;54569;52.018;5.584;2022-08-21T05:48:06;10.90;;;8.10;;
67768;SDS011;54569;52.018;5.584;2022-08-21T05:50:32;13.00;;;9.25;;
67768;SDS011;54569;52.018;5.584;2022-08-21T05:52:58;9.48;;;8.38;;
67768;SDS011;54569;52.018;5.584;2022-08-21T05:55:24;9.95;;;8.02;;
67768;SDS011;54569;52.018;5.584;2022-08-21T05:57:49;9.95;;;7.53;;
67768;SDS011;54569;52.018;5.584;2022-08-21T06:00:15;10.60;;;7.68;;
67768;SDS011;54569;52.018;5.584;2022-08-21T06:02:41;10.13;;;6.97;;
67768;SDS011;54569;52.018;5.584;2022-08-21T06:05:07;9.02;;;6.90;;
67768;SDS011;54569;52.018;5.584;2022-08-21T06:07:33;12.63;;;6.78;;
67768;SDS011;54569;52.018;5.584;2022-08-21T06:09:58;10.50;;;8.27;;
67768;SDS011;54569;52.018;5.584;2022-08-21T06:12:24;10.52;;;7.00;;
67768;SDS011;54569;52.018;5.584;2022-08-21T06:14:50;9.20;;;6.53;;
67768;SDS011;54569;52.018;5.584;2022-08-21T06:17:17;10.82;;;5.95;;
67768;SDS011;54569;52.018;5.584;2022-08-21T06:19:43;13.13;;;6.40;;
67768;SDS011;54569;52.018;5.584;2022-08-21T06:22:09;11.60;;;6.55;;
67768;SDS011;54569;52.018;5.584;2022-08-21T06:24:35;10.80;;;6.22;;
67768;SDS011;54569;52.018;5.584;2022-08-21T06:27:04;12.00;;;5.97;;
67768;SDS011;54569;52.018;5.584;2022-08-21T06:29:31;9.07;;;5.97;;
67768;SDS011;54569;52.018;5.584;2022-08-21T06:31:57;12.43;;;5.82;;
67768;SDS011;54569;52.018;5.584;2022-08-21T06:34:23;10.25;;;6.45;;
67768;SDS011;54569;52.018;5.584;2022-08-21T06:36:48;15.30;;;6.65;;
67768;SDS011;54569;52.018;5.584;2022-08-21T06:39:14;11.05;;;5.97;;
67768;SDS011;54569;52.018;5.584;2022-08-21T06:41:39;8.10;;;5.93;;
67768;SDS011;54569;52.018;5.584;2022-08-21T06:44:05;11.40;;;5.50;;
67768;SDS011;54569;52.018;5.584;2022-08-21T06:46:31;13.07;;;5.93;;
67768;SDS011;54569;52.018;5.584;2022-08-21T06:48:57;10.35;;;5.57;;
67768;SDS011;54569;52.018;5.584;2022-08-21T06:51:24;9.73;;;5.35;;
67768;SDS011;54569;52.018;5.584;2022-08-21T06:53:52;14.73;;;6.20;;
67768;SDS011;54569;52.018;5.584;2022-08-21T06:56:18;12.73;;;6.18;;
67768;SDS011;54569;52.018;5.584;2022-08-21T06:58:44;11.30;;;5.75;;
67768;SDS011;54569;52.018;5.584;2022-08-21T07:01:10;13.93;;;5.88;;
67768;SDS011;54569;52.018;5.584;2022-08-21T07:03:37;15.02;;;5.85;;
67768;SDS011;54569;52.018;5.584;2022-08-21T07:06:05;12.80;;;6.47;;
67768;SDS011;54569;52.018;5.584;2022-08-21T07:08:32;12.45;;;5.43;;
67768;SDS011;54569;52.018;5.584;2022-08-21T07:10:59;11.10;;;5.88;;
67768;SDS011;54569;52.018;5.584;2022-08-21T07:13:26;13.85;;;6.07;;
67768;SDS011;54569;52.018;5.584;2022-08-21T07:15:52;10.40;;;6.20;;
67768;SDS011;54569;52.018;5.584;2022-08-21T07:18:18;11.95;;;5.68;;
67768;SDS011;54569;52.018;5.584;2022-08-21T07:20:44;12.43;;;6.15;;
67768;SDS011;54569;52.018;5.584;2022-08-21T07:23:18;12.90;;;5.80;;
67768;SDS011;54569;52.018;5.584;2022-08-21T07:25:49;10.55;;;6.20;;
67768;SDS011;54569;52.018;5.584;2022-08-21T07:28:15;13.60;;;6.10;;
67768;SDS011;54569;52.018;5.584;2022-08-21T07:30:41;13.65;;;6.05;;
67768;SDS011;54569;52.018;5.584;2022-08-21T07:33:06;9.20;;;5.70;;
67768;SDS011;54569;52.018;5.584;2022-08-21T07:35:32;12.27;;;5.78;;
67768;SDS011;54569;52.018;5.584;2022-08-21T07:37:58;14.02;;;6.30;;
67768;SDS011;54569;52.018;5.584;2022-08-21T07:40:24;14.48;;;6.93;;
67768;SDS011;54569;52.018;5.584;2022-08-21T07:42:50;12.30;;;5.75;;
67768;SDS011;54569;52.018;5.584;2022-08-21T07:45:17;14.38;;;5.32;;
67768;SDS011;54569;52.018;5.584;2022-08-21T07:47:46;15.07;;;5.38;;
67768;SDS011;54569;52.018;5.584;2022-08-21T07:50:13;12.38;;;5.45;;
67768;SDS011;54569;52.018;5.584;2022-08-21T07:52:40;12.07;;;5.53;;
67768;SDS011;54569;52.018;5.584;2022-08-21T07:55:07;10.43;;;4.90;;
67768;SDS011;54569;52.018;5.584;2022-08-21T07:57:34;9.68;;;5.60;;
67768;SDS011;54569;52.018;5.584;2022-08-21T08:00:00;13.57;;;5.68;;
67768;SDS011;54569;52.018;5.584;2022-08-21T08:02:28;14.90;;;5.43;;
67768;SDS011;54569;52.018;5.584;2022-08-21T08:04:58;17.27;;;5.75;;
67768;SDS011;54569;52.018;5.584;2022-08-21T08:07:28;11.45;;;5.45;;
67768;SDS011;54569;52.018;5.584;2022-08-21T08:09:54;13.57;;;5.07;;
67768;SDS011;54569;52.018;5.584;2022-08-21T08:12:20;16.27;;;5.57;;
67768;SDS011;54569;52.018;5.584;2022-08-21T08:14:49;8.90;;;4.80;;
67768;SDS011;54569;52.018;5.584;2022-08-21T08:17:14;15.02;;;5.72;;
67768;SDS011;54569;52.018;5.584;2022-08-21T08:19:40;11.50;;;5.50;;
67768;SDS011;54569;52.018;5.584;2022-08-21T08:22:16;9.73;;;5.03;;
67768;SDS011;54569;52.018;5.584;2022-08-21T08:24:44;11.48;;;4.57;;
67768;SDS011;54569;52.018;5.584;2022-08-21T08:27:10;12.98;;;5.45;;
67768;SDS011;54569;52.018;5.584;2022-08-21T08:29:36;8.88;;;5.13;;
67768;SDS011;54569;52.018;5.584;2022-08-21T08:32:03;11.55;;;4.68;;
67768;SDS011;54569;52.018;5.584;2022-08-21T08:34:32;9.57;;;4.57;;
67768;SDS011;54569;52.018;5.584;2022-08-21T08:36:58;10.35;;;4.00;;
67768;SDS011;54569;52.018;5.584;2022-08-21T08:39:24;10.55;;;4.47;;
67768;SDS011;54569;52.018;5.584;2022-08-21T08:41:55;6.63;;;3.90;;
67768;SDS011;54569;52.018;5.584;2022-08-21T08:44:27;10.98;;;4.00;;
67768;SDS011;54569;52.018;5.584;2022-08-21T08:46:53;9.45;;;3.90;;
67768;SDS011;54569;52.018;5.584;2022-08-21T08:51:56;9.35;;;4.13;;
67768;SDS011;54569;52.018;5.584;2022-08-21T08:54:32;10.23;;;4.03;;
67768;SDS011;54569;52.018;5.584;2022-08-21T08:57:12;6.88;;;3.22;;
67768;SDS011;54569;52.018;5.584;2022-08-21T08:59:48;6.53;;;3.22;;
67768;SDS011;54569;52.018;5.584;2022-08-21T09:02:17;10.10;;;3.88;;
67768;SDS011;54569;52.018;5.584;2022-08-21T09:04:44;7.80;;;3.40;;
67768;SDS011;54569;52.018;5.584;2022-08-21T09:07:25;9.30;;;3.35;;
67768;SDS011;54569;52.018;5.584;2022-08-21T09:21:42;11.77;;;2.75;;
67768;SDS011;54569;52.018;5.584;2022-08-21T09:27:13;9.57;;;2.90;;
67768;SDS011;54569;52.018;5.584;2022-08-21T09:29:42;11.02;;;3.20;;
67768;SDS011;54569;52.018;5.584;2022-08-21T09:34:54;7.78;;;2.08;;
67768;SDS011;54569;52.018;5.584;2022-08-21T09:37:21;11.07;;;2.88;;
67768;SDS011;54569;52.018;5.584;2022-08-21T09:39:46;10.00;;;3.00;;
67768;SDS011;54569;52.018;5.584;2022-08-21T09:42:20;7.28;;;2.70;;
67768;SDS011;54569;52.018;5.584;2022-08-21T09:44:48;11.73;;;2.33;;
67768;SDS011;54569;52.018;5.584;2022-08-21T09:47:13;7.00;;;2.60;;
67768;SDS011;54569;52.018;5.584;2022-08-21T09:49:43;6.65;;;2.47;;
67768;SDS011;54569;52.018;5.584;2022-08-21T09:52:16;7.07;;;2.40;;
67768;SDS011;54569;52.018;5.584;2022-08-21T09:54:48;9.35;;;2.60;;
67768;SDS011;54569;52.018;5.584;2022-08-21T09:57:28;7.47;;;2.13;;
67768;SDS011;54569;52.018;5.584;2022-08-21T10:00:27;7.15;;;1.98;;
67768;SDS011;54569;52.018;5.584;2022-08-21T10:03:18;9.60;;;2.40;;
67768;SDS011;54569;52.018;5.584;2022-08-21T10:05:56;8.25;;;2.58;;
67768;SDS011;54569;52.018;5.584;2022-08-21T10:08:30;9.07;;;2.60;;
67768;SDS011;54569;52.018;5.584;2022-08-21T10:11:05;6.18;;;2.40;;
67768;SDS011;54569;52.018;5.584;2022-08-21T10:16:23;6.57;;;2.10;;
67768;SDS011;54569;52.018;5.584;2022-08-21T10:21:33;5.93;;;1.90;;
67768;SDS011;54569;52.018;5.584;2022-08-21T10:24:25;6.07;;;2.00;;
67768;SDS011;54569;52.018;5.584;2022-08-21T10:35:21;7.30;;;2.40;;
67768;SDS011;54569;52.018;5.584;2022-08-21T10:40:46;4.70;;;2.10;;
67768;SDS011;54569;52.018;5.584;2022-08-21T10:43:52;6.68;;;1.80;;
67768;SDS011;54569;52.018;5.584;2022-08-21T10:52:04;4.22;;;1.73;;
67768;SDS011;54569;52.018;5.584;2022-08-21T10:54:41;5.35;;;1.60;;
67768;SDS011;54569;52.018;5.584;2022-08-21T10:57:26;5.82;;;1.80;;
67768;SDS011;54569;52.018;5.584;2022-08-21T11:00:17;6.45;;;2.58;;
67768;SDS011;54569;52.018;5.584;2022-08-21T11:05:58;4.45;;;1.70;;
67768;SDS011;54569;52.018;5.584;2022-08-21T11:08:57;6.55;;;2.13;;
67768;SDS011;54569;52.018;5.584;2022-08-21T11:11:39;5.03;;;2.05;;
67768;SDS011;54569;52.018;5.584;2022-08-21T11:16:53;6.57;;;2.00;;
67768;SDS011;54569;52.018;5.584;2022-08-21T11:19:33;5.15;;;1.90;;
67768;SDS011;54569;52.018;5.584;2022-08-21T11:22:15;4.47;;;1.52;;
67768;SDS011;54569;52.018;5.584;2022-08-21T11:24:57;5.00;;;1.60;;
67768;SDS011;54569;52.018;5.584;2022-08-21T11:27:49;5.05;;;1.50;;
67768;SDS011;54569;52.018;5.584;2022-08-21T11:30:16;5.60;;;1.77;;
67768;SDS011;54569;52.018;5.584;2022-08-21T11:35:27;3.13;;;1.48;;
67768;SDS011;54569;52.018;5.584;2022-08-21T11:43:43;4.20;;;1.42;;
67768;SDS011;54569;52.018;5.584;2022-08-21T11:46:41;2.47;;;1.60;;
67768;SDS011;54569;52.018;5.584;2022-08-21T11:49:22;3.35;;;1.60;;
67768;SDS011;54569;52.018;5.584;2022-08-21T11:54:38;5.35;;;1.77;;
67768;SDS011;54569;52.018;5.584;2022-08-21T11:57:26;6.15;;;1.88;;
67768;SDS011;54569;52.018;5.584;2022-08-21T12:00:05;4.07;;;1.52;;
67768;SDS011;54569;52.018;5.584;2022-08-21T12:02:42;3.35;;;1.27;;
67768;SDS011;54569;52.018;5.584;2022-08-21T12:05:12;4.72;;;1.50;;
67768;SDS011;54569;52.018;5.584;2022-08-21T12:07:58;5.47;;;1.80;;
67768;SDS011;54569;52.018;5.584;2022-08-21T12:10:31;4.95;;;1.70;;
67768;SDS011;54569;52.018;5.584;2022-08-21T12:13:05;4.32;;;1.50;;
67768;SDS011;54569;52.018;5.584;2022-08-21T12:15:33;3.38;;;1.48;;
67768;SDS011;54569;52.018;5.584;2022-08-21T12:18:03;4.57;;;1.20;;
67768;SDS011;54569;52.018;5.584;2022-08-21T12:20:42;3.30;;;1.33;;
67768;SDS011;54569;52.018;5.584;2022-08-21T12:23:26;6.30;;;1.90;;
67768;SDS011;54569;52.018;5.584;2022-08-21T12:26:01;4.10;;;1.77;;
67768;SDS011;54569;52.018;5.584;2022-08-21T12:28:34;4.55;;;1.92;;
67768;SDS011;54569;52.018;5.584;2022-08-21T12:31:00;5.43;;;2.05;;
67768;SDS011;54569;52.018;5.584;2022-08-21T12:36:04;3.35;;;1.60;;
67768;SDS011;54569;52.018;5.584;2022-08-21T12:41:25;4.22;;;1.60;;
67768;SDS011;54569;52.018;5.584;2022-08-21T12:43:59;5.55;;;2.00;;
67768;SDS011;54569;52.018;5.584;2022-08-21T12:46:32;5.60;;;2.03;;
67768;SDS011;54569;52.018;5.584;2022-08-21T12:49:11;3.83;;;1.50;;
67768;SDS011;54569;52.018;5.584;2022-08-21T12:51:55;4.05;;;1.50;;
67768;SDS011;54569;52.018;5.584;2022-08-21T12:54:38;4.18;;;1.63;;
67768;SDS011;54569;52.018;5.584;2022-08-21T12:57:08;4.78;;;1.77;;
67768;SDS011;54569;52.018;5.584;2022-08-21T12:59:43;5.93;;;2.20;;
67768;SDS011;54569;52.018;5.584;2022-08-21T13:02:13;4.10;;;1.42;;
67768;SDS011;54569;52.018;5.584;2022-08-21T13:04:43;6.10;;;1.63;;
67768;SDS011;54569;52.018;5.584;2022-08-21T13:07:12;3.92;;;1.60;;
67768;SDS011;54569;52.018;5.584;2022-08-21T13:09:46;4.25;;;1.40;;
67768;SDS011;54569;52.018;5.584;2022-08-21T13:12:15;4.85;;;1.30;;
67768;SDS011;54569;52.018;5.584;2022-08-21T13:14:43;3.15;;;1.65;;
67768;SDS011;54569;52.018;5.584;2022-08-21T13:17:12;6.18;;;1.65;;
67768;SDS011;54569;52.018;5.584;2022-08-21T13:19:41;4.53;;;1.70;;
67768;SDS011;54569;52.018;5.584;2022-08-21T13:22:14;4.43;;;1.35;;
67768;SDS011;54569;52.018;5.584;2022-08-21T13:24:40;5.72;;;1.90;;
67768;SDS011;54569;52.018;5.584;2022-08-21T13:30:14;4.38;;;1.40;;
67768;SDS011;54569;52.018;5.584;2022-08-21T13:32:51;2.83;;;1.00;;
67768;SDS011;54569;52.018;5.584;2022-08-21T13:35:22;4.40;;;1.30;;
67768;SDS011;54569;52.018;5.584;2022-08-21T13:38:09;4.13;;;1.27;;
67768;SDS011;54569;52.018;5.584;2022-08-21T13:40:40;4.32;;;1.35;;
67768;SDS011;54569;52.018;5.584;2022-08-21T13:43:15;5.72;;;1.50;;
67768;SDS011;54569;52.018;5.584;2022-08-21T13:45:47;4.45;;;1.45;;
67768;SDS011;54569;52.018;5.584;2022-08-21T13:48:15;4.70;;;1.42;;
67768;SDS011;54569;52.018;5.584;2022-08-21T13:50:41;3.80;;;1.48;;
67768;SDS011;54569;52.018;5.584;2022-08-21T13:53:20;3.72;;;1.25;;
67768;SDS011;54569;52.018;5.584;2022-08-21T13:56:00;6.65;;;2.63;;
67768;SDS011;54569;52.018;5.584;2022-08-21T13:58:41;4.78;;;1.75;;
67768;SDS011;54569;52.018;5.584;2022-08-21T14:01:18;5.43;;;1.77;;
67768;SDS011;54569;52.018;5.584;2022-08-21T14:03:48;4.60;;;1.70;;
67768;SDS011;54569;52.018;5.584;2022-08-21T14:06:20;4.80;;;1.50;;
67768;SDS011;54569;52.018;5.584;2022-08-21T14:11:16;6.22;;;1.60;;
67768;SDS011;54569;52.018;5.584;2022-08-21T14:13:44;4.55;;;1.67;;
67768;SDS011;54569;52.018;5.584;2022-08-21T14:18:53;6.93;;;1.58;;
67768;SDS011;54569;52.018;5.584;2022-08-21T14:21:41;5.93;;;1.20;;
67768;SDS011;54569;52.018;5.584;2022-08-21T14:26:50;5.65;;;1.48;;
67768;SDS011;54569;52.018;5.584;2022-08-21T14:29:26;3.63;;;1.50;;
67768;SDS011;54569;52.018;5.584;2022-08-21T14:31:58;4.80;;;1.60;;
67768;SDS011;54569;52.018;5.584;2022-08-21T14:34:26;5.30;;;2.55;;
67768;SDS011;54569;52.018;5.584;2022-08-21T14:36:53;4.80;;;1.65;;
67768;SDS011;54569;52.018;5.584;2022-08-21T14:39:19;11.88;;;5.25;;
67768;SDS011;54569;52.018;5.584;2022-08-21T14:41:45;4.28;;;1.23;;
67768;SDS011;54569;52.018;5.584;2022-08-21T14:44:14;4.03;;;1.80;;
67768;SDS011;54569;52.018;5.584;2022-08-21T14:46:41;8.25;;;4.28;;
67768;SDS011;54569;52.018;5.584;2022-08-21T14:49:08;3.33;;;1.33;;
67768;SDS011;54569;52.018;5.584;2022-08-21T14:51:33;3.17;;;1.45;;
67768;SDS011;54569;52.018;5.584;2022-08-21T14:53:59;5.50;;;1.70;;
67768;SDS011;54569;52.018;5.584;2022-08-21T14:56:25;10.95;;;5.32;;
67768;SDS011;54569;52.018;5.584;2022-08-21T14:58:51;6.32;;;1.80;;
67768;SDS011;54569;52.018;5.584;2022-08-21T15:01:19;7.88;;;2.40;;
67768;SDS011;54569;52.018;5.584;2022-08-21T15:03:47;5.00;;;1.67;;
67768;SDS011;54569;52.018;5.584;2022-08-21T15:06:14;5.15;;;1.77;;
67768;SDS011;54569;52.018;5.584;2022-08-21T15:08:41;7.13;;;1.60;;
67768;SDS011;54569;52.018;5.584;2022-08-21T15:11:08;6.07;;;1.67;;
67768;SDS011;54569;52.018;5.584;2022-08-21T15:13:37;5.10;;;1.60;;
67768;SDS011;54569;52.018;5.584;2022-08-21T15:16:03;4.22;;;1.75;;
67768;SDS011;54569;52.018;5.584;2022-08-21T15:18:30;2.75;;;1.40;;
67768;SDS011;54569;52.018;5.584;2022-08-21T15:20:56;4.50;;;1.50;;
67768;SDS011;54569;52.018;5.584;2022-08-21T15:23:21;4.82;;;1.77;;
67768;SDS011;54569;52.018;5.584;2022-08-21T15:25:48;5.63;;;1.65;;
67768;SDS011;54569;52.018;5.584;2022-08-21T15:28:15;4.40;;;1.60;;
67768;SDS011;54569;52.018;5.584;2022-08-21T15:30:42;4.93;;;1.60;;
67768;SDS011;54569;52.018;5.584;2022-08-21T15:33:09;4.40;;;1.60;;
67768;SDS011;54569;52.018;5.584;2022-08-21T15:35:35;3.65;;;1.38;;
67768;SDS011;54569;52.018;5.584;2022-08-21T15:38:01;2.72;;;1.45;;
67768;SDS011;54569;52.018;5.584;2022-08-21T15:40:27;3.85;;;1.80;;
67768;SDS011;54569;52.018;5.584;2022-08-21T15:42:56;4.80;;;1.58;;
67768;SDS011;54569;52.018;5.584;2022-08-21T15:45:24;4.43;;;1.63;;
67768;SDS011;54569;52.018;5.584;2022-08-21T15:47:50;6.82;;;1.90;;
67768;SDS011;54569;52.018;5.584;2022-08-21T15:50:16;4.13;;;1.88;;
67768;SDS011;54569;52.018;5.584;2022-08-21T15:52:43;3.45;;;1.50;;
67768;SDS011;54569;52.018;5.584;2022-08-21T15:55:10;5.38;;;1.85;;
67768;SDS011;54569;52.018;5.584;2022-08-21T15:57:37;4.50;;;2.03;;
67768;SDS011;54569;52.018;5.584;2022-08-21T16:00:12;4.13;;;1.73;;
67768;SDS011;54569;52.018;5.584;2022-08-21T16:02:44;6.95;;;1.80;;
67768;SDS011;54569;52.018;5.584;2022-08-21T16:05:13;8.50;;;1.80;;
67768;SDS011;54569;52.018;5.584;2022-08-21T16:07:41;6.35;;;1.70;;
67768;SDS011;54569;52.018;5.584;2022-08-21T16:10:08;7.65;;;2.13;;
67768;SDS011;54569;52.018;5.584;2022-08-21T16:12:36;4.97;;;1.88;;